sensor_id;sensor_type;location;lat;lon;timestamp;temperature;humidity
69464;DHT22;56665;41.106;16.688;2022-12-07T00:00:50;13.07;88.01
69464;DHT22;56665;41.106;16.688;2022-12-07T00:03:56;13.06;88.05
69464;DHT22;56665;41.106;16.688;2022-12-07T00:07:12;12.99;88.15
69464;DHT22;56665;41.106;16.688;2022-12-07T00:10:16;13.00;88.19
69464;DHT22;56665;41.106;16.688;2022-12-07T00:13:20;12.98;88.27
69464;DHT22;56665;41.106;16.688;2022-12-07T00:16:26;12.93;88.63
69464;DHT22;56665;41.106;16.688;2022-12-07T00:19:30;12.92;88.88
69464;DHT22;56665;41.106;16.688;2022-12-07T00:22:35;12.91;88.95
69464;DHT22;56665;41.106;16.688;2022-12-07T00:25:39;12.91;88.76
69464;DHT22;56665;41.106;16.688;2022-12-07T00:28:50;12.93;88.75
69464;DHT22;56665;41.106;16.688;2022-12-07T00:31:58;12.93;88.64
69464;DHT22;56665;41.106;16.688;2022-12-07T00:35:05;12.93;88.59
69464;DHT22;56665;41.106;16.688;2022-12-07T00:38:10;12.88;88.46
69464;DHT22;56665;41.106;16.688;2022-12-07T00:41:23;12.88;88.42
69464;DHT22;56665;41.106;16.688;2022-12-07T00:44:27;12.83;88.45
69464;DHT22;56665;41.106;16.688;2022-12-07T00:47:31;12.83;88.28
69464;DHT22;56665;41.106;16.688;2022-12-07T00:50:35;12.80;88.14
69464;DHT22;56665;41.106;16.688;2022-12-07T00:53:40;12.73;88.25
69464;DHT22;56665;41.106;16.688;2022-12-07T00:56:43;12.72;88.32
69464;DHT22;56665;41.106;16.688;2022-12-07T00:59:48;12.71;88.06
69464;DHT22;56665;41.106;16.688;2022-12-07T01:02:52;12.69;88.11
69464;DHT22;56665;41.106;16.688;2022-12-07T01:05:56;12.68;88.14
69464;DHT22;56665;41.106;16.688;2022-12-07T01:09:01;12.67;88.23
69464;DHT22;56665;41.106;16.688;2022-12-07T01:12:05;12.68;88.25
69464;DHT22;56665;41.106;16.688;2022-12-07T01:15:09;12.68;88.12
69464;DHT22;56665;41.106;16.688;2022-12-07T01:18:13;12.69;87.91
69464;DHT22;56665;41.106;16.688;2022-12-07T01:21:20;12.68;87.96
69464;DHT22;56665;41.106;16.688;2022-12-07T01:24:24;12.67;88.03
69464;DHT22;56665;41.106;16.688;2022-12-07T01:27:29;12.67;88.00
69464;DHT22;56665;41.106;16.688;2022-12-07T01:30:32;12.67;87.84
69464;DHT22;56665;41.106;16.688;2022-12-07T01:33:37;12.64;87.85
69464;DHT22;56665;41.106;16.688;2022-12-07T01:36:42;12.64;87.80
69464;DHT22;56665;41.106;16.688;2022-12-07T01:39:48;12.59;87.69
69464;DHT22;56665;41.106;16.688;2022-12-07T01:42:55;12.57;87.84
69464;DHT22;56665;41.106;16.688;2022-12-07T01:46:00;12.57;87.83
69464;DHT22;56665;41.106;16.688;2022-12-07T01:49:06;12.49;87.78
69464;DHT22;56665;41.106;16.688;2022-12-07T01:52:30;12.47;87.98
69464;DHT22;56665;41.106;16.688;2022-12-07T01:55:38;12.42;88.06
69464;DHT22;56665;41.106;16.688;2022-12-07T01:58:44;12.38;88.19
69464;DHT22;56665;41.106;16.688;2022-12-07T02:01:52;12.37;87.98
69464;DHT22;56665;41.106;16.688;2022-12-07T02:05:00;12.31;87.73
69464;DHT22;56665;41.106;16.688;2022-12-07T02:08:05;12.31;87.78
69464;DHT22;56665;41.106;16.688;2022-12-07T02:11:10;12.24;87.69
69464;DHT22;56665;41.106;16.688;2022-12-07T02:14:17;12.20;87.75
69464;DHT22;56665;41.106;16.688;2022-12-07T02:17:26;12.20;87.85
69464;DHT22;56665;41.106;16.688;2022-12-07T02:27:52;12.12;87.92
69464;DHT22;56665;41.106;16.688;2022-12-07T02:31:09;12.07;87.98
69464;DHT22;56665;41.106;16.688;2022-12-07T02:34:19;12.07;88.22
69464;DHT22;56665;41.106;16.688;2022-12-07T02:41:04;12.06;88.16
69464;DHT22;56665;41.106;16.688;2022-12-07T02:44:12;12.07;88.38
69464;DHT22;56665;41.106;16.688;2022-12-07T02:47:19;12.04;88.01
69464;DHT22;56665;41.106;16.688;2022-12-07T02:50:25;12.03;87.79
69464;DHT22;56665;41.106;16.688;2022-12-07T02:53:48;12.01;88.22
69464;DHT22;56665;41.106;16.688;2022-12-07T03:00:14;12.03;88.24
69464;DHT22;56665;41.106;16.688;2022-12-07T03:03:19;12.04;88.17
69464;DHT22;56665;41.106;16.688;2022-12-07T03:06:42;12.04;88.13
69464;DHT22;56665;41.106;16.688;2022-12-07T03:13:47;12.06;88.12
69464;DHT22;56665;41.106;16.688;2022-12-07T03:16:57;12.06;88.08
69464;DHT22;56665;41.106;16.688;2022-12-07T03:20:06;12.03;87.91
69464;DHT22;56665;41.106;16.688;2022-12-07T03:23:12;12.00;88.09
69464;DHT22;56665;41.106;16.688;2022-12-07T03:26:19;12.00;88.23
69464;DHT22;56665;41.106;16.688;2022-12-07T03:29:30;11.96;88.30
69464;DHT22;56665;41.106;16.688;2022-12-07T03:32:41;11.91;88.36
69464;DHT22;56665;41.106;16.688;2022-12-07T03:39:52;11.91;88.62
69464;DHT22;56665;41.106;16.688;2022-12-07T03:43:02;11.86;88.51
69464;DHT22;56665;41.106;16.688;2022-12-07T03:46:20;11.79;88.31
69464;DHT22;56665;41.106;16.688;2022-12-07T03:53:15;11.83;88.41
69464;DHT22;56665;41.106;16.688;2022-12-07T03:56:22;11.77;87.84
69464;DHT22;56665;41.106;16.688;2022-12-07T03:59:26;11.75;87.95
69464;DHT22;56665;41.106;16.688;2022-12-07T04:02:31;11.79;88.22
69464;DHT22;56665;41.106;16.688;2022-12-07T04:05:39;11.79;87.93
69464;DHT22;56665;41.106;16.688;2022-12-07T04:08:43;11.79;87.95
69464;DHT22;56665;41.106;16.688;2022-12-07T04:11:48;11.82;87.57
69464;DHT22;56665;41.106;16.688;2022-12-07T04:14:52;11.83;87.91
69464;DHT22;56665;41.106;16.688;2022-12-07T04:17:57;11.89;87.71
69464;DHT22;56665;41.106;16.688;2022-12-07T04:21:01;11.93;87.40
69464;DHT22;56665;41.106;16.688;2022-12-07T04:24:05;11.96;87.24
69464;DHT22;56665;41.106;16.688;2022-12-07T04:27:10;12.06;87.47
69464;DHT22;56665;41.106;16.688;2022-12-07T04:30:14;12.17;87.32
69464;DHT22;56665;41.106;16.688;2022-12-07T04:33:20;12.21;86.75
69464;DHT22;56665;41.106;16.688;2022-12-07T04:36:24;12.27;86.83
69464;DHT22;56665;41.106;16.688;2022-12-07T04:39:29;12.30;86.68
69464;DHT22;56665;41.106;16.688;2022-12-07T04:42:33;12.30;86.49
69464;DHT22;56665;41.106;16.688;2022-12-07T04:45:39;12.28;86.70
69464;DHT22;56665;41.106;16.688;2022-12-07T04:48:43;12.26;86.25
69464;DHT22;56665;41.106;16.688;2022-12-07T04:51:48;12.24;86.99
69464;DHT22;56665;41.106;16.688;2022-12-07T04:54:52;12.24;86.70
69464;DHT22;56665;41.106;16.688;2022-12-07T04:57:56;12.26;86.30
69464;DHT22;56665;41.106;16.688;2022-12-07T05:01:02;12.26;86.47
69464;DHT22;56665;41.106;16.688;2022-12-07T05:04:06;12.27;86.24
69464;DHT22;56665;41.106;16.688;2022-12-07T05:07:09;12.26;86.51
69464;DHT22;56665;41.106;16.688;2022-12-07T05:10:13;12.24;86.47
69464;DHT22;56665;41.106;16.688;2022-12-07T05:13:17;12.23;86.53
69464;DHT22;56665;41.106;16.688;2022-12-07T05:16:23;12.23;86.32
69464;DHT22;56665;41.106;16.688;2022-12-07T05:19:28;12.16;86.23
69464;DHT22;56665;41.106;16.688;2022-12-07T05:22:32;12.14;86.50
69464;DHT22;56665;41.106;16.688;2022-12-07T05:25:38;12.12;86.59
69464;DHT22;56665;41.106;16.688;2022-12-07T05:28:41;12.12;86.68
69464;DHT22;56665;41.106;16.688;2022-12-07T05:31:46;12.06;86.62
69464;DHT22;56665;41.106;16.688;2022-12-07T05:34:50;12.03;86.77
69464;DHT22;56665;41.106;16.688;2022-12-07T05:37:55;12.04;87.10
69464;DHT22;56665;41.106;16.688;2022-12-07T05:41:05;12.06;87.41
69464;DHT22;56665;41.106;16.688;2022-12-07T05:44:09;12.10;87.67
69464;DHT22;56665;41.106;16.688;2022-12-07T05:47:13;12.10;87.45
69464;DHT22;56665;41.106;16.688;2022-12-07T05:50:21;12.12;87.65
69464;DHT22;56665;41.106;16.688;2022-12-07T05:53:38;12.14;87.90
69464;DHT22;56665;41.106;16.688;2022-12-07T05:56:43;12.17;87.63
69464;DHT22;56665;41.106;16.688;2022-12-07T05:59:46;12.18;87.59
69464;DHT22;56665;41.106;16.688;2022-12-07T06:02:50;12.18;87.70
69464;DHT22;56665;41.106;16.688;2022-12-07T06:05:53;12.21;87.77
69464;DHT22;56665;41.106;16.688;2022-12-07T06:08:58;12.20;87.42
69464;DHT22;56665;41.106;16.688;2022-12-07T06:12:02;12.23;87.56
69464;DHT22;56665;41.106;16.688;2022-12-07T06:15:26;12.26;87.74
69464;DHT22;56665;41.106;16.688;2022-12-07T06:18:29;12.26;87.63
69464;DHT22;56665;41.106;16.688;2022-12-07T06:21:33;12.27;87.19
69464;DHT22;56665;41.106;16.688;2022-12-07T06:24:38;12.27;87.31
69464;DHT22;56665;41.106;16.688;2022-12-07T06:27:43;12.30;87.33
69464;DHT22;56665;41.106;16.688;2022-12-07T06:31:05;12.33;87.16
69464;DHT22;56665;41.106;16.688;2022-12-07T06:34:12;12.41;87.08
69464;DHT22;56665;41.106;16.688;2022-12-07T06:37:19;12.45;86.80
69464;DHT22;56665;41.106;16.688;2022-12-07T06:40:24;12.57;86.68
69464;DHT22;56665;41.106;16.688;2022-12-07T06:43:33;12.68;86.35
69464;DHT22;56665;41.106;16.688;2022-12-07T06:46:37;12.73;86.11
69464;DHT22;56665;41.106;16.688;2022-12-07T06:49:42;12.85;85.49
69464;DHT22;56665;41.106;16.688;2022-12-07T06:52:46;12.92;84.79
69464;DHT22;56665;41.106;16.688;2022-12-07T06:55:50;12.96;84.42
69464;DHT22;56665;41.106;16.688;2022-12-07T06:58:54;13.07;84.50
69464;DHT22;56665;41.106;16.688;2022-12-07T07:01:58;13.09;84.20
69464;DHT22;56665;41.106;16.688;2022-12-07T07:05:03;13.07;84.48
69464;DHT22;56665;41.106;16.688;2022-12-07T07:08:10;12.99;84.52
69464;DHT22;56665;41.106;16.688;2022-12-07T07:11:14;12.93;84.88
69464;DHT22;56665;41.106;16.688;2022-12-07T07:14:17;12.85;85.09
69464;DHT22;56665;41.106;16.688;2022-12-07T07:17:22;12.80;85.43
69464;DHT22;56665;41.106;16.688;2022-12-07T07:20:26;12.85;85.63
69464;DHT22;56665;41.106;16.688;2022-12-07T07:23:30;13.07;85.27
69464;DHT22;56665;41.106;16.688;2022-12-07T07:26:34;13.51;84.29
69464;DHT22;56665;41.106;16.688;2022-12-07T07:29:39;13.92;82.81
69464;DHT22;56665;41.106;16.688;2022-12-07T07:32:45;14.23;81.26
69464;DHT22;56665;41.106;16.688;2022-12-07T07:35:49;14.37;80.59
69464;DHT22;56665;41.106;16.688;2022-12-07T07:38:54;14.25;80.61
69464;DHT22;56665;41.106;16.688;2022-12-07T07:41:57;14.16;81.06
69464;DHT22;56665;41.106;16.688;2022-12-07T07:45:04;14.30;81.17
69464;DHT22;56665;41.106;16.688;2022-12-07T07:48:08;14.71;80.09
69464;DHT22;56665;41.106;16.688;2022-12-07T07:51:12;15.08;78.67
69464;DHT22;56665;41.106;16.688;2022-12-07T07:54:17;15.43;77.51
69464;DHT22;56665;41.106;16.688;2022-12-07T07:57:21;15.71;76.54
69464;DHT22;56665;41.106;16.688;2022-12-07T08:00:24;15.93;75.92
69464;DHT22;56665;41.106;16.688;2022-12-07T08:03:29;16.11;75.32
69464;DHT22;56665;41.106;16.688;2022-12-07T08:06:33;16.34;75.27
69464;DHT22;56665;41.106;16.688;2022-12-07T08:09:37;16.52;74.36
69464;DHT22;56665;41.106;16.688;2022-12-07T08:12:42;16.72;73.68
69464;DHT22;56665;41.106;16.688;2022-12-07T08:16:08;16.95;73.19
69464;DHT22;56665;41.106;16.688;2022-12-07T08:19:14;17.11;72.98
69464;DHT22;56665;41.106;16.688;2022-12-07T08:22:17;17.30;72.29
69464;DHT22;56665;41.106;16.688;2022-12-07T08:25:22;17.52;71.56
69464;DHT22;56665;41.106;16.688;2022-12-07T08:28:28;17.78;70.59
69464;DHT22;56665;41.106;16.688;2022-12-07T08:31:33;18.06;69.83
69464;DHT22;56665;41.106;16.688;2022-12-07T08:34:37;18.38;69.16
69464;DHT22;56665;41.106;16.688;2022-12-07T08:37:41;18.72;67.97
69464;DHT22;56665;41.106;16.688;2022-12-07T08:40:53;19.08;66.66
69464;DHT22;56665;41.106;16.688;2022-12-07T08:43:59;19.45;65.66
69464;DHT22;56665;41.106;16.688;2022-12-07T08:47:06;19.75;64.57
69464;DHT22;56665;41.106;16.688;2022-12-07T08:50:14;20.05;64.05
69464;DHT22;56665;41.106;16.688;2022-12-07T08:53:20;20.32;63.19
69464;DHT22;56665;41.106;16.688;2022-12-07T08:56:24;20.53;62.74
69464;DHT22;56665;41.106;16.688;2022-12-07T08:59:32;20.72;61.96
69464;DHT22;56665;41.106;16.688;2022-12-07T09:02:36;20.81;61.03
69464;DHT22;56665;41.106;16.688;2022-12-07T09:05:41;20.96;60.18
69464;DHT22;56665;41.106;16.688;2022-12-07T09:08:53;21.10;59.45
69464;DHT22;56665;41.106;16.688;2022-12-07T09:11:58;21.25;59.29
69464;DHT22;56665;41.106;16.688;2022-12-07T09:15:05;21.31;59.30
69464;DHT22;56665;41.106;16.688;2022-12-07T09:18:12;21.25;58.82
69464;DHT22;56665;41.106;16.688;2022-12-07T09:21:16;21.34;58.38
69464;DHT22;56665;41.106;16.688;2022-12-07T09:24:19;21.39;58.46
69464;DHT22;56665;41.106;16.688;2022-12-07T09:27:30;21.52;57.88
69464;DHT22;56665;41.106;16.688;2022-12-07T09:30:35;21.55;57.67
69464;DHT22;56665;41.106;16.688;2022-12-07T09:33:42;21.56;57.85
69464;DHT22;56665;41.106;16.688;2022-12-07T09:36:49;21.54;57.42
69464;DHT22;56665;41.106;16.688;2022-12-07T09:39:53;21.51;57.39
69464;DHT22;56665;41.106;16.688;2022-12-07T09:43:01;21.48;56.90
69464;DHT22;56665;41.106;16.688;2022-12-07T09:46:08;21.48;56.49
69464;DHT22;56665;41.106;16.688;2022-12-07T09:49:19;21.22;55.90
69464;DHT22;56665;41.106;16.688;2022-12-07T09:52:27;20.97;56.74
69464;DHT22;56665;41.106;16.688;2022-12-07T09:55:33;20.64;57.50
69464;DHT22;56665;41.106;16.688;2022-12-07T09:58:44;20.72;57.39
69464;DHT22;56665;41.106;16.688;2022-12-07T10:01:50;20.75;57.28
69464;DHT22;56665;41.106;16.688;2022-12-07T10:04:59;20.79;57.27
69464;DHT22;56665;41.106;16.688;2022-12-07T10:08:09;20.90;56.25
69464;DHT22;56665;41.106;16.688;2022-12-07T10:11:14;20.46;56.04
69464;DHT22;56665;41.106;16.688;2022-12-07T10:14:19;20.15;56.77
69464;DHT22;56665;41.106;16.688;2022-12-07T10:17:38;20.15;57.53
69464;DHT22;56665;41.106;16.688;2022-12-07T10:20:49;20.29;58.34
69464;DHT22;56665;41.106;16.688;2022-12-07T10:24:14;20.40;58.55
69464;DHT22;56665;41.106;16.688;2022-12-07T10:27:37;20.40;58.62
69464;DHT22;56665;41.106;16.688;2022-12-07T10:30:57;20.39;57.78
69464;DHT22;56665;41.106;16.688;2022-12-07T10:34:02;20.36;57.27
69464;DHT22;56665;41.106;16.688;2022-12-07T10:40:34;20.46;57.85
69464;DHT22;56665;41.106;16.688;2022-12-07T10:43:47;20.49;57.46
69464;DHT22;56665;41.106;16.688;2022-12-07T10:57:43;20.12;63.58
69464;DHT22;56665;41.106;16.688;2022-12-07T11:08:03;20.00;65.16
69464;DHT22;56665;41.106;16.688;2022-12-07T11:21:58;19.45;66.82
69464;DHT22;56665;41.106;16.688;2022-12-07T11:29:10;19.16;68.40
69464;DHT22;56665;41.106;16.688;2022-12-07T11:39:55;19.13;69.58
69464;DHT22;56665;41.106;16.688;2022-12-07T11:43:31;19.16;69.80
69464;DHT22;56665;41.106;16.688;2022-12-07T11:46:47;18.98;69.89
69464;DHT22;56665;41.106;16.688;2022-12-07T11:53:55;18.67;71.09
69464;DHT22;56665;41.106;16.688;2022-12-07T11:57:18;18.77;71.00
69464;DHT22;56665;41.106;16.688;2022-12-07T12:00:22;18.88;70.53
69464;DHT22;56665;41.106;16.688;2022-12-07T12:03:30;19.05;70.18
69464;DHT22;56665;41.106;16.688;2022-12-07T12:06:41;19.27;68.83
69464;DHT22;56665;41.106;16.688;2022-12-07T12:09:50;19.16;69.51
69464;DHT22;56665;41.106;16.688;2022-12-07T12:16:39;18.77;70.90
69464;DHT22;56665;41.106;16.688;2022-12-07T12:23:24;18.28;72.98
69464;DHT22;56665;41.106;16.688;2022-12-07T12:26:33;18.13;73.58
69464;DHT22;56665;41.106;16.688;2022-12-07T12:29:41;18.20;73.79
69464;DHT22;56665;41.106;16.688;2022-12-07T12:32:45;18.43;73.36
69464;DHT22;56665;41.106;16.688;2022-12-07T12:39:19;18.21;73.27
69464;DHT22;56665;41.106;16.688;2022-12-07T12:42:58;18.17;73.93
69464;DHT22;56665;41.106;16.688;2022-12-07T12:49:38;17.95;75.12
69464;DHT22;56665;41.106;16.688;2022-12-07T12:53:03;17.79;75.68
69464;DHT22;56665;41.106;16.688;2022-12-07T12:56:28;17.47;76.34
69464;DHT22;56665;41.106;16.688;2022-12-07T12:59:36;17.39;77.00
69464;DHT22;56665;41.106;16.688;2022-12-07T13:02:58;17.31;77.32
69464;DHT22;56665;41.106;16.688;2022-12-07T13:09:34;17.51;76.91
69464;DHT22;56665;41.106;16.688;2022-12-07T13:12:39;17.57;76.72
69464;DHT22;56665;41.106;16.688;2022-12-07T13:15:46;17.52;76.84
69464;DHT22;56665;41.106;16.688;2022-12-07T13:18:50;17.30;77.09
69464;DHT22;56665;41.106;16.688;2022-12-07T13:21:53;17.27;77.63
69464;DHT22;56665;41.106;16.688;2022-12-07T13:28:32;17.30;77.55
69464;DHT22;56665;41.106;16.688;2022-12-07T13:31:51;17.31;77.43
69464;DHT22;56665;41.106;16.688;2022-12-07T13:34:55;17.35;77.07
69464;DHT22;56665;41.106;16.688;2022-12-07T13:38:01;17.24;77.21
69464;DHT22;56665;41.106;16.688;2022-12-07T13:41:15;17.18;77.32
69464;DHT22;56665;41.106;16.688;2022-12-07T13:44:19;17.17;77.84
69464;DHT22;56665;41.106;16.688;2022-12-07T13:47:47;17.21;77.98
69464;DHT22;56665;41.106;16.688;2022-12-07T13:50:55;17.17;78.03
69464;DHT22;56665;41.106;16.688;2022-12-07T13:54:06;17.16;78.17
69464;DHT22;56665;41.106;16.688;2022-12-07T13:57:13;17.10;78.43
69464;DHT22;56665;41.106;16.688;2022-12-07T14:00:21;17.10;78.71
69464;DHT22;56665;41.106;16.688;2022-12-07T14:03:30;17.27;78.91
69464;DHT22;56665;41.106;16.688;2022-12-07T14:06:36;17.35;77.61
69464;DHT22;56665;41.106;16.688;2022-12-07T14:10:05;17.45;78.03
69464;DHT22;56665;41.106;16.688;2022-12-07T14:13:36;17.48;77.37
69464;DHT22;56665;41.106;16.688;2022-12-07T14:17:02;17.42;77.52
69464;DHT22;56665;41.106;16.688;2022-12-07T14:20:36;17.30;77.43
69464;DHT22;56665;41.106;16.688;2022-12-07T14:24:02;17.02;78.67
69464;DHT22;56665;41.106;16.688;2022-12-07T14:27:20;16.82;79.52
69464;DHT22;56665;41.106;16.688;2022-12-07T14:30:29;16.62;80.41
69464;DHT22;56665;41.106;16.688;2022-12-07T14:33:33;16.41;80.90
69464;DHT22;56665;41.106;16.688;2022-12-07T14:36:37;16.29;81.48
69464;DHT22;56665;41.106;16.688;2022-12-07T14:39:42;16.15;81.86
69464;DHT22;56665;41.106;16.688;2022-12-07T14:42:48;15.96;82.31
69464;DHT22;56665;41.106;16.688;2022-12-07T14:45:57;15.86;83.01
69464;DHT22;56665;41.106;16.688;2022-12-07T14:49:02;15.78;83.46
69464;DHT22;56665;41.106;16.688;2022-12-07T14:52:14;15.69;83.77
69464;DHT22;56665;41.106;16.688;2022-12-07T14:55:28;15.65;84.22
69464;DHT22;56665;41.106;16.688;2022-12-07T14:58:32;15.62;84.35
69464;DHT22;56665;41.106;16.688;2022-12-07T15:01:36;15.56;84.34
69464;DHT22;56665;41.106;16.688;2022-12-07T15:04:43;15.50;84.72
69464;DHT22;56665;41.106;16.688;2022-12-07T15:07:48;15.45;84.95
69464;DHT22;56665;41.106;16.688;2022-12-07T15:10:57;15.43;85.23
69464;DHT22;56665;41.106;16.688;2022-12-07T15:14:02;15.36;85.48
69464;DHT22;56665;41.106;16.688;2022-12-07T15:17:11;15.22;85.60
69464;DHT22;56665;41.106;16.688;2022-12-07T15:20:17;15.14;86.09
69464;DHT22;56665;41.106;16.688;2022-12-07T15:23:23;14.98;86.69
69464;DHT22;56665;41.106;16.688;2022-12-07T15:26:32;14.88;87.01
69464;DHT22;56665;41.106;16.688;2022-12-07T15:29:36;14.77;87.43
69464;DHT22;56665;41.106;16.688;2022-12-07T15:32:40;14.71;87.89
69464;DHT22;56665;41.106;16.688;2022-12-07T15:35:48;14.66;88.04
69464;DHT22;56665;41.106;16.688;2022-12-07T15:38:51;14.60;88.24
69464;DHT22;56665;41.106;16.688;2022-12-07T15:41:55;14.56;88.32
69464;DHT22;56665;41.106;16.688;2022-12-07T15:44:59;14.50;88.83
69464;DHT22;56665;41.106;16.688;2022-12-07T15:48:09;14.44;88.96
69464;DHT22;56665;41.106;16.688;2022-12-07T15:51:15;14.43;89.01
69464;DHT22;56665;41.106;16.688;2022-12-07T15:54:25;14.37;88.96
69464;DHT22;56665;41.106;16.688;2022-12-07T15:57:30;14.34;89.10
69464;DHT22;56665;41.106;16.688;2022-12-07T16:00:41;14.32;89.26
69464;DHT22;56665;41.106;16.688;2022-12-07T16:03:50;14.25;89.38
69464;DHT22;56665;41.106;16.688;2022-12-07T16:06:57;14.25;89.69
69464;DHT22;56665;41.106;16.688;2022-12-07T16:10:02;14.26;89.70
69464;DHT22;56665;41.106;16.688;2022-12-07T16:13:06;14.30;89.52
69464;DHT22;56665;41.106;16.688;2022-12-07T16:16:16;14.33;89.59
69464;DHT22;56665;41.106;16.688;2022-12-07T16:19:22;14.36;89.51
69464;DHT22;56665;41.106;16.688;2022-12-07T16:22:27;14.44;89.01
69464;DHT22;56665;41.106;16.688;2022-12-07T16:25:30;14.44;88.21
69464;DHT22;56665;41.106;16.688;2022-12-07T16:28:34;14.44;88.22
69464;DHT22;56665;41.106;16.688;2022-12-07T16:31:39;14.46;87.76
69464;DHT22;56665;41.106;16.688;2022-12-07T16:34:42;14.44;87.77
69464;DHT22;56665;41.106;16.688;2022-12-07T16:37:46;14.36;86.93
69464;DHT22;56665;41.106;16.688;2022-12-07T16:40:53;14.23;87.13
69464;DHT22;56665;41.106;16.688;2022-12-07T16:44:00;14.20;87.46
69464;DHT22;56665;41.106;16.688;2022-12-07T16:47:06;14.13;87.45
69464;DHT22;56665;41.106;16.688;2022-12-07T16:50:10;14.08;87.48
69464;DHT22;56665;41.106;16.688;2022-12-07T16:53:16;14.04;87.64
69464;DHT22;56665;41.106;16.688;2022-12-07T16:56:23;14.01;87.51
69464;DHT22;56665;41.106;16.688;2022-12-07T16:59:30;14.01;87.72
69464;DHT22;56665;41.106;16.688;2022-12-07T17:02:37;14.01;88.25
69464;DHT22;56665;41.106;16.688;2022-12-07T17:05:43;14.06;87.95
69464;DHT22;56665;41.106;16.688;2022-12-07T17:08:48;14.02;87.29
69464;DHT22;56665;41.106;16.688;2022-12-07T17:11:53;13.95;86.54
69464;DHT22;56665;41.106;16.688;2022-12-07T17:15:00;13.89;86.72
69464;DHT22;56665;41.106;16.688;2022-12-07T17:18:27;13.85;86.92
69464;DHT22;56665;41.106;16.688;2022-12-07T17:21:30;13.78;87.53
69464;DHT22;56665;41.106;16.688;2022-12-07T17:24:38;13.75;87.58
69464;DHT22;56665;41.106;16.688;2022-12-07T17:27:43;13.70;87.48
69464;DHT22;56665;41.106;16.688;2022-12-07T17:30:48;13.64;87.77
69464;DHT22;56665;41.106;16.688;2022-12-07T17:33:54;13.59;87.84
69464;DHT22;56665;41.106;16.688;2022-12-07T17:37:01;13.59;87.75
69464;DHT22;56665;41.106;16.688;2022-12-07T17:40:08;13.53;86.71
69464;DHT22;56665;41.106;16.688;2022-12-07T17:43:12;13.43;86.85
69464;DHT22;56665;41.106;16.688;2022-12-07T17:46:19;13.38;87.23
69464;DHT22;56665;41.106;16.688;2022-12-07T17:49:23;13.31;86.48
69464;DHT22;56665;41.106;16.688;2022-12-07T17:52:30;13.26;85.60
69464;DHT22;56665;41.106;16.688;2022-12-07T17:55:53;13.16;85.90
69464;DHT22;56665;41.106;16.688;2022-12-07T17:58:58;13.05;85.92
69464;DHT22;56665;41.106;16.688;2022-12-07T18:02:02;13.02;86.46
69464;DHT22;56665;41.106;16.688;2022-12-07T18:05:07;12.98;86.84
69464;DHT22;56665;41.106;16.688;2022-12-07T18:08:11;12.99;87.38
69464;DHT22;56665;41.106;16.688;2022-12-07T18:11:15;12.92;87.03
69464;DHT22;56665;41.106;16.688;2022-12-07T18:14:19;12.93;87.15
69464;DHT22;56665;41.106;16.688;2022-12-07T18:17:23;12.93;87.13
69464;DHT22;56665;41.106;16.688;2022-12-07T18:20:27;13.00;87.34
69464;DHT22;56665;41.106;16.688;2022-12-07T18:23:31;13.07;87.69
69464;DHT22;56665;41.106;16.688;2022-12-07T18:26:38;13.13;86.20
69464;DHT22;56665;41.106;16.688;2022-12-07T18:29:42;13.09;85.60
69464;DHT22;56665;41.106;16.688;2022-12-07T18:32:46;13.12;85.64
69464;DHT22;56665;41.106;16.688;2022-12-07T18:35:52;13.06;85.02
69464;DHT22;56665;41.106;16.688;2022-12-07T18:38:56;12.99;85.53
69464;DHT22;56665;41.106;16.688;2022-12-07T18:42:00;12.95;86.11
69464;DHT22;56665;41.106;16.688;2022-12-07T18:45:04;12.95;86.77
69464;DHT22;56665;41.106;16.688;2022-12-07T18:48:09;12.89;85.36
69464;DHT22;56665;41.106;16.688;2022-12-07T18:51:14;12.80;85.18
69464;DHT22;56665;41.106;16.688;2022-12-07T18:54:18;12.72;85.47
69464;DHT22;56665;41.106;16.688;2022-12-07T18:57:25;12.65;86.25
69464;DHT22;56665;41.106;16.688;2022-12-07T19:00:29;12.67;87.03
69464;DHT22;56665;41.106;16.688;2022-12-07T19:03:34;12.68;87.82
69464;DHT22;56665;41.106;16.688;2022-12-07T19:06:46;12.73;88.17
69464;DHT22;56665;41.106;16.688;2022-12-07T19:09:52;12.72;88.49
69464;DHT22;56665;41.106;16.688;2022-12-07T19:12:57;12.73;88.31
69464;DHT22;56665;41.106;16.688;2022-12-07T19:16:06;12.61;85.95
69464;DHT22;56665;41.106;16.688;2022-12-07T19:19:10;12.55;85.58
69464;DHT22;56665;41.106;16.688;2022-12-07T19:22:18;12.44;85.77
69464;DHT22;56665;41.106;16.688;2022-12-07T19:25:22;12.34;86.10
69464;DHT22;56665;41.106;16.688;2022-12-07T19:28:28;12.33;86.30
69464;DHT22;56665;41.106;16.688;2022-12-07T19:31:32;12.24;86.61
69464;DHT22;56665;41.106;16.688;2022-12-07T19:34:38;12.24;87.00
69464;DHT22;56665;41.106;16.688;2022-12-07T19:37:45;12.21;87.80
69464;DHT22;56665;41.106;16.688;2022-12-07T19:40:52;12.21;88.15
69464;DHT22;56665;41.106;16.688;2022-12-07T19:44:02;12.20;87.76
69464;DHT22;56665;41.106;16.688;2022-12-07T19:47:06;12.18;87.71
69464;DHT22;56665;41.106;16.688;2022-12-07T19:50:11;12.18;87.55
69464;DHT22;56665;41.106;16.688;2022-12-07T19:53:17;12.13;87.41
69464;DHT22;56665;41.106;16.688;2022-12-07T19:56:21;12.08;87.47
69464;DHT22;56665;41.106;16.688;2022-12-07T19:59:27;12.06;87.62
69464;DHT22;56665;41.106;16.688;2022-12-07T20:02:31;12.00;87.47
69464;DHT22;56665;41.106;16.688;2022-12-07T20:05:35;11.94;87.68
69464;DHT22;56665;41.106;16.688;2022-12-07T20:08:43;11.93;88.01
69464;DHT22;56665;41.106;16.688;2022-12-07T20:11:48;11.93;87.93
69464;DHT22;56665;41.106;16.688;2022-12-07T20:15:10;11.87;87.83
69464;DHT22;56665;41.106;16.688;2022-12-07T20:18:16;11.86;87.85
69464;DHT22;56665;41.106;16.688;2022-12-07T20:21:21;11.87;88.15
69464;DHT22;56665;41.106;16.688;2022-12-07T20:24:26;11.87;88.33
69464;DHT22;56665;41.106;16.688;2022-12-07T20:27:30;11.87;88.15
69464;DHT22;56665;41.106;16.688;2022-12-07T20:30:34;11.89;88.04
69464;DHT22;56665;41.106;16.688;2022-12-07T20:33:39;11.85;88.01
69464;DHT22;56665;41.106;16.688;2022-12-07T20:36:45;11.87;87.94
69464;DHT22;56665;41.106;16.688;2022-12-07T20:39:49;11.82;87.72
69464;DHT22;56665;41.106;16.688;2022-12-07T20:42:53;11.80;87.94
69464;DHT22;56665;41.106;16.688;2022-12-07T20:45:57;11.77;87.93
69464;DHT22;56665;41.106;16.688;2022-12-07T20:49:04;11.77;88.22
69464;DHT22;56665;41.106;16.688;2022-12-07T20:52:08;11.73;88.34
69464;DHT22;56665;41.106;16.688;2022-12-07T20:55:16;11.76;88.58
69464;DHT22;56665;41.106;16.688;2022-12-07T20:58:20;11.73;88.37